Pagrindinis puslapis
METAR-TAF:

METAR-TAF

Oro uostai :

Anadyris, Rusija

platuma: 64-47N, ilguma: 177-34E, Aukštis: 62 m

Dabartinis oras

Ataskaita buvo paskelbta 49 minutes, ne 23:00 UTC
Vėjas 8 kt iš Pietų/Pietvakarių
Temperatūra 14°C
Drėgmė 51%
Slėgis 1017 hPa
Matomumas 10 km arba daugiau
nėra debesų žemiau 1500 m ir nėra kamuolinių lietaus debesų

METAR: UHMA 052300Z 21004MPS CAVOK 14/04 Q1017 R19/60D NOSIG RMK TDZ R19/21004G05MPS END R19/18003G05MPS QFE757/1010

Laikas: 11:49 (23:49 UTC)

Prognozė

Ataskaita buvo paskelbta 1 valandą ir 7 minutes, ne 22:42 UTC
Prognozė galioja nuo 06 metu 00 UTC su 06 metu 24 UTC
Vėjas 6 kt iš Pietų su gūsio iki 16 kt
Matomumas 10 km arba daugiau
Išsisklaidę debesys ne aukštis 3000 ft
Laikinai
nuo 06 metu 00 UTC su 06 metu 24 UTC
Vėjas 12 kt iš Rytų/Pietryčių
Matomumas: 5000 m
Išsisklaidę debesys ne aukštis 500 ft
Su prošvaistėmis ne aukštis 2000 ft, Liūtiniai kamuoliniai debesys.
lietus, rūkana

TAF: UHMA 052242Z 0600/0624 19003G08MPS 9999 SCT030 TEMPO 0600/0624 12006MPS 5000 -SHRA BR SCT005 BKN020CB

Orai ataskaitas ir orų prognozės (METAR, TAF).

turimą stotys yra geltonos ir raudonos taškus žemėlapyje.

Perkelti pele per norėdami pamatyti stoties vardą.

Tada spustelėkite, norėdami matyti oro stebėjimo ir prognozės.

Norėdami pakeisti žemėlapį: spustelėkite ant žalios mygtukų su juodo kryžiaus žemyn,; žalią mygtuką su brūkšneliu, jei norite nutolinti; arba žalių rodyklių gretimoms žemėlapius.


METAR-TAF: